地図

経路データ

SID SEASON NUMBER BASIN SUBBASIN NAME ISO_TIME NATURE LAT LON WMO_WIND WMO_PRES WMO_AGENCY TRACK_TYPE DIST2LAND LANDFALL IFLAG USA_AGENCY USA_ATCF_ID USA_LAT USA_LON USA_RECORD USA_STATUS USA_WIND USA_PRES USA_SSHS USA_R34_NE USA_R34_SE USA_R34_SW USA_R34_NW USA_R50_NE USA_R50_SE USA_R50_SW USA_R50_NW USA_R64_NE USA_R64_SE USA_R64_SW USA_R64_NW USA_POCI USA_ROCI USA_RMW USA_EYE TOKYO_LAT TOKYO_LON TOKYO_GRADE TOKYO_WIND TOKYO_PRES TOKYO_R50_DIR TOKYO_R50_LONG TOKYO_R50_SHORT TOKYO_R30_DIR TOKYO_R30_LONG TOKYO_R30_SHORT TOKYO_LAND CMA_LAT CMA_LON CMA_CAT CMA_WIND CMA_PRES HKO_LAT HKO_LON HKO_CAT HKO_WIND HKO_PRES NEWDELHI_LAT NEWDELHI_LON NEWDELHI_GRADE NEWDELHI_WIND NEWDELHI_PRES NEWDELHI_CI NEWDELHI_DP NEWDELHI_POCI REUNION_LAT REUNION_LON REUNION_TYPE REUNION_WIND REUNION_PRES REUNION_TNUM REUNION_CI REUNION_RMW REUNION_R34_NE REUNION_R34_SE REUNION_R34_SW REUNION_R34_NW REUNION_R50_NE REUNION_R50_SE REUNION_R50_SW REUNION_R50_NW REUNION_R64_NE REUNION_R64_SE REUNION_R64_SW REUNION_R64_NW BOM_LAT BOM_LON BOM_TYPE BOM_WIND BOM_PRES BOM_TNUM BOM_CI BOM_RMW BOM_R34_NE BOM_R34_SE BOM_R34_SW BOM_R34_NW BOM_R50_NE BOM_R50_SE BOM_R50_SW BOM_R50_NW BOM_R64_NE BOM_R64_SE BOM_R64_SW BOM_R64_NW BOM_ROCI BOM_POCI BOM_EYE BOM_POS_METHOD BOM_PRES_METHOD NADI_LAT NADI_LON NADI_CAT NADI_WIND NADI_PRES WELLINGTON_LAT WELLINGTON_LON WELLINGTON_WIND WELLINGTON_PRES DS824_LAT DS824_LON DS824_STAGE DS824_WIND DS824_PRES TD9636_LAT TD9636_LON TD9636_STAGE TD9636_WIND TD9636_PRES TD9635_LAT TD9635_LON TD9635_WIND TD9635_PRES TD9635_ROCI NEUMANN_LAT NEUMANN_LON NEUMANN_CLASS NEUMANN_WIND NEUMANN_PRES MLC_LAT MLC_LON MLC_CLASS MLC_WIND MLC_PRES USA_GUST BOM_GUST BOM_GUST_PER REUNION_GUST REUNION_GUST_PER USA_SEAHGT USA_SEARAD_NE USA_SEARAD_SE USA_SEARAD_SW USA_SEARAD_NW STORM_SPEED STORM_DIR
1877259N26310 1877 28 NA NA NOT_NAMED 1877-09-16 00:00:00 TS 25.5000 -50.5000 70 hurdat_atl main 1745 1700 O_____________ hurdat_atl AL031877 25.5000 -50.5000 HU 70 1 13 290
1877259N26310 1877 28 NA NA NOT_NAMED 1877-09-16 03:00:00 TS 25.7181 -51.1573 main 1691 1653 P_____________ AL031877 25.7181 -51.1573 HU 70 1 13 293
1877259N26310 1877 28 NA NA NOT_NAMED 1877-09-16 06:00:00 TS 26.0000 -51.8000 70 hurdat_atl main 1653 1623 O_____________ hurdat_atl AL031877 26.0000 -51.8000 HU 70 1 13 301
1877259N26310 1877 28 NA NA NOT_NAMED 1877-09-16 09:00:00 TS 26.3847 -52.4149 main 1623 1596 P_____________ AL031877 26.3847 -52.4149 HU 70 1 13 307
1877259N26310 1877 28 NA NA NOT_NAMED 1877-09-16 12:00:00 TS 26.8000 -53.0000 70 hurdat_atl main 1596 1574 O_____________ hurdat_atl AL031877 26.8000 -53.0000 HU 70 1 13 307
1877259N26310 1877 28 NA NA NOT_NAMED 1877-09-16 15:00:00 TS 27.1649 -53.5802 main 1572 1553 P_____________ AL031877 27.1649 -53.5802 HU 70 1 12 306
1877259N26310 1877 28 NA NA NOT_NAMED 1877-09-16 18:00:00 TS 27.5000 -54.1000 70 hurdat_atl main 1553 1537 O_____________ hurdat_atl AL031877 27.5000 -54.1000 HU 70 1 10 307
1877259N26310 1877 28 NA NA NOT_NAMED 1877-09-16 21:00:00 TS 27.7921 -54.5157 main 1544 1537 P_____________ AL031877 27.7921 -54.5157 HU 70 1 9 310
1877259N26310 1877 28 NA NA NOT_NAMED 1877-09-17 00:00:00 TS 28.1000 -54.9000 70 hurdat_atl main 1537 1530 O_____________ hurdat_atl AL031877 28.1000 -54.9000 HU 70 1 10 314
1877259N26310 1877 28 NA NA NOT_NAMED 1877-09-17 03:00:00 TS 28.5001 -55.3572 main 1533 1533 P_____________ AL031877 28.5001 -55.3572 HU 70 1 11 315
1877259N26310 1877 28 NA NA NOT_NAMED 1877-09-17 06:00:00 TS 28.9000 -55.8000 70 hurdat_atl main 1538 1533 O_____________ hurdat_atl AL031877 28.9000 -55.8000 HU 70 1 10 315
1877259N26310 1877 28 NA NA NOT_NAMED 1877-09-17 09:00:00 TS 29.2072 -56.1582 main 1538 1538 P_____________ AL031877 29.2072 -56.1582 HU 70 1 9 315
1877259N26310 1877 28 NA NA NOT_NAMED 1877-09-17 12:00:00 TS 29.5000 -56.5000 70 hurdat_atl main 1545 1542 O_____________ hurdat_atl AL031877 29.5000 -56.5000 HU 70 1 9 315
1877259N26310 1877 28 NA NA NOT_NAMED 1877-09-17 15:00:00 TS 29.8576 -56.9073 main 1557 1551 P_____________ AL031877 29.8576 -56.9073 HU 70 1 10 315
1877259N26310 1877 28 NA NA NOT_NAMED 1877-09-17 18:00:00 TS 30.2000 -57.3000 70 hurdat_atl main 1562 1556 O_____________ hurdat_atl AL031877 30.2000 -57.3000 HU 70 1 9 315
1877259N26310 1877 28 NA NA NOT_NAMED 1877-09-17 21:00:00 TS 30.4648 -57.6080 main 1574 1567 P_____________ AL031877 30.4648 -57.6080 HU 70 1 7 314
1877259N26310 1877 28 NA NA NOT_NAMED 1877-09-18 00:00:00 TS 30.7000 -57.9000 70 hurdat_atl main 1567 1535 O_____________ hurdat_atl AL031877 30.7000 -57.9000 HU 70 1 7 312
1877259N26310 1877 28 NA NA NOT_NAMED 1877-09-18 03:00:00 TS 30.9500 -58.2426 main 1535 1490 P_____________ AL031877 30.9500 -58.2426 HU 70 1 8 310
1877259N26310 1877 28 NA NA NOT_NAMED 1877-09-18 06:00:00 TS 31.2000 -58.6000 70 hurdat_atl main 1490 1459 O_____________ hurdat_atl AL031877 31.2000 -58.6000 HU 70 1 8 309
1877259N26310 1877 28 NA NA NOT_NAMED 1877-09-18 09:00:00 TS 31.4424 -58.9503 main 1456 1414 P_____________ AL031877 31.4424 -58.9503 HU 70 1 8 310
1877259N26310 1877 28 NA NA NOT_NAMED 1877-09-18 12:00:00 TS 31.7000 -59.3000 70 hurdat_atl main 1414 1373 O_____________ hurdat_atl AL031877 31.7000 -59.3000 HU 70 1 8 313
1877259N26310 1877 28 NA NA NOT_NAMED 1877-09-18 15:00:00 TS 31.9924 -59.6501 main 1370 1329 P_____________ AL031877 31.9924 -59.6501 HU 70 1 8 315
1877259N26310 1877 28 NA NA NOT_NAMED 1877-09-18 18:00:00 TS 32.3000 -60.0000 70 hurdat_atl main 1329 1289 O_____________ hurdat_atl AL031877 32.3000 -60.0000 HU 70 1 8 316
1877259N26310 1877 28 NA NA NOT_NAMED 1877-09-18 21:00:00 TS 32.5998 -60.3428 main 1289 1245 P_____________ AL031877 32.5998 -60.3428 HU 70 1 8 316
1877259N26310 1877 28 NA NA NOT_NAMED 1877-09-19 00:00:00 TS 32.9000 -60.7000 70 hurdat_atl main 1245 1203 O_____________ hurdat_atl AL031877 32.9000 -60.7000 HU 70 1 9 313
1877259N26310 1877 28 NA NA NOT_NAMED 1877-09-19 03:00:00 TS 33.2076 -61.1149 main 1203 1160 P_____________ AL031877 33.2076 -61.1149 HU 70 1 9 312
1877259N26310 1877 28 NA NA NOT_NAMED 1877-09-19 06:00:00 TS 33.5000 -61.5000 70 hurdat_atl main 1160 1134 O_____________ hurdat_atl AL031877 33.5000 -61.5000 HU 70 1 8 316
1877259N26310 1877 28 NA NA NOT_NAMED 1877-09-19 09:00:00 TS 33.7572 -61.7581 main 1121 1095 P_____________ AL031877 33.7572 -61.7581 HU 70 1 7 320
1877259N26310 1877 28 NA NA NOT_NAMED 1877-09-19 12:00:00 TS 34.0000 -62.0000 70 hurdat_atl main 1095 1067 O_____________ hurdat_atl AL031877 34.0000 -62.0000 HU 70 1 7 315
1877259N26310 1877 28 NA NA NOT_NAMED 1877-09-19 15:00:00 TS 34.2501 -62.3499 main 1056 1023 P_____________ AL031877 34.2501 -62.3499 HU 70 1 8 311
1877259N26310 1877 28 NA NA NOT_NAMED 1877-09-19 18:00:00 TS 34.5000 -62.7000 70 hurdat_atl main 1023 989 O_____________ hurdat_atl AL031877 34.5000 -62.7000 HU 70 1 7 315
1877259N26310 1877 28 NA NA NOT_NAMED 1877-09-19 21:00:00 TS 34.7498 -62.9653 main 989 951 P_____________ AL031877 34.7498 -62.9653 HU 70 1 6 321
1877259N26310 1877 28 NA NA NOT_NAMED 1877-09-20 00:00:00 TS 35.0000 -63.2000 70 hurdat_atl main 951 917 O_____________ hurdat_atl AL031877 35.0000 -63.2000 HU 70 1 6 321
1877259N26310 1877 28 NA NA NOT_NAMED 1877-09-20 03:00:00 TS 35.2500 -63.4650 main 908 879 P_____________ AL031877 35.2500 -63.4650 HU 70 1 6 321
1877259N26310 1877 28 NA NA NOT_NAMED 1877-09-20 06:00:00 TS 35.5000 -63.7000 70 hurdat_atl main 879 850 O_____________ hurdat_atl AL031877 35.5000 -63.7000 HU 70 1 6 325
1877259N26310 1877 28 NA NA NOT_NAMED 1877-09-20 09:00:00 TS 35.7350 -63.8801 main 850 818 P_____________ AL031877 35.7350 -63.8801 HU 70 1 6 334
1877259N26310 1877 28 NA NA NOT_NAMED 1877-09-20 12:00:00 TS 36.0000 -64.0000 70 hurdat_atl main 818 786 O_____________ hurdat_atl AL031877 36.0000 -64.0000 HU 70 1 6 346
1877259N26310 1877 28 NA NA NOT_NAMED 1877-09-20 15:00:00 TS 36.3275 -64.0726 main 786 752 P_____________ AL031877 36.3275 -64.0726 HU 70 1 7 354
1877259N26310 1877 28 NA NA NOT_NAMED 1877-09-20 18:00:00 TS 36.7000 -64.1000 70 hurdat_atl main 752 719 O_____________ hurdat_atl AL031877 36.7000 -64.1000 HU 70 1 8 357
1877259N26310 1877 28 NA NA NOT_NAMED 1877-09-20 21:00:00 TS 37.1150 -64.1076 main 719 675 P_____________ AL031877 37.1150 -64.1076 HU 70 1 8 1
1877259N26310 1877 28 NA NA NOT_NAMED 1877-09-21 00:00:00 TS 37.5000 -64.1000 70 hurdat_atl main 675 653 O_____________ hurdat_atl AL031877 37.5000 -64.1000 HU 70 1 6 2
1877259N26310 1877 28 NA NA NOT_NAMED 1877-09-21 03:00:00 TS 37.7575 -64.1074 main 642 620 P_____________ AL031877 37.7575 -64.1074 HU 70 1 5 2
1877259N26310 1877 28 NA NA NOT_NAMED 1877-09-21 06:00:00 TS 38.0000 -64.1000 70 hurdat_atl main 620 598 O_____________ hurdat_atl AL031877 38.0000 -64.1000 HU 70 1 5 0
1877259N26310 1877 28 NA NA NOT_NAMED 1877-09-21 09:00:00 TS 38.2675 -64.0793 main 587 544 P_____________ AL031877 38.2675 -64.0793 HU 70 1 7 6
1877259N26310 1877 28 NA NA NOT_NAMED 1877-09-21 12:00:00 TS 38.7000 -64.0000 70 hurdat_atl main 544 470 O_____________ hurdat_atl AL031877 38.7000 -64.0000 HU 70 1 12 8
1877259N26310 1877 28 NA NA NOT_NAMED 1877-09-21 15:00:00 TS 39.4097 -63.8732 main 470 392 P_____________ AL031877 39.4097 -63.8732 HU 70 1 16 11
1877259N26310 1877 28 NA NA NOT_NAMED 1877-09-21 18:00:00 TS 40.3000 -63.6000 70 hurdat_atl main 382 308 O_____________ hurdat_atl AL031877 40.3000 -63.6000 HU 70 1 19 17
1877259N26310 1877 28 NA NA NOT_NAMED 1877-09-21 21:00:00 TS 41.2500 -63.1256 main 303 257 P_____________ AL031877 41.2500 -63.1256 HU 65 1 21 24
1877259N26310 1877 28 NA NA NOT_NAMED 1877-09-22 00:00:00 TS 42.2000 -62.5000 60 hurdat_atl main 257 202 O_____________ hurdat_atl AL031877 42.2000 -62.5000 TS 60 0 20 28
1877259N26310 1877 28 NA NA NOT_NAMED 1877-09-22 03:00:00 TS 43.0296 -61.8356 main 205 147 P_____________ AL031877 43.0296 -61.8356 TS 60 0 19 33
1877259N26310 1877 28 NA NA NOT_NAMED 1877-09-22 06:00:00 TS 43.8000 -61.1000 60 hurdat_atl main 147 90 O_____________ hurdat_atl AL031877 43.8000 -61.1000 TS 60 0 18 34
1877259N26310 1877 28 NA NA NOT_NAMED 1877-09-22 09:00:00 TS 44.5474 -60.3991 main 95 67 P_____________ AL031877 44.5474 -60.3991 TS 60 0 19 37
1877259N26310 1877 28 NA NA NOT_NAMED 1877-09-22 12:00:00 TS 45.3000 -59.5000 60 hurdat_atl main 72 70 O_____________ hurdat_atl AL031877 45.3000 -59.5000 TS 60 0 22 45
1877259N26310 1877 28 NA NA NOT_NAMED 1877-09-22 15:00:00 TS 46.0932 -58.2269 main 123 61 P_____________ AL031877 46.0932 -58.2269 TS 60 0 25 51
1877259N26310 1877 28 NA NA NOT_NAMED 1877-09-22 18:00:00 TS 46.9000 -56.7000 60 hurdat_atl main 54 O_____________ hurdat_atl AL031877 46.9000 -56.7000 TS 60 0 26 52

IBTrACS Databaseについて

本データベースは、米国NOAAが公開する1842年以降の世界の熱帯低気圧のベストトラックデータアーカイブInternational Best Track Archive for Climate Stewardship (IBTrACS)を、ウェブで閲覧しやすい形式に変換したものです。

最終更新日:2021-10-19